Time;durP1;ratioP1;P1;durP2;ratioP2;P2;SDS_P1;SDS_P2;PMS_P1;PMS_P2;Temp;Humidity;BMP_temperature;BMP_pressure;BME280_temperature;BME280_humidity;BME280_pressure;Samples;Min_cycle;Max_cycle;Signal;HPM_P1;HPM_P2
2023/10/28 00:00:58;;;;;;;0.30;0.30;;;;;;;8.71;100.00;99355.00;5095545;28;20024;-54
2023/10/28 00:03:24;;;;;;;0.30;0.30;;;;;;;8.71;100.00;99352.44;5095539;28;20035;-54
2023/10/28 00:05:50;;;;;;;0.20;0.20;;;;;;;8.74;100.00;99349.03;5095584;28;20020;-55
2023/10/28 00:08:15;;;;;;;0.30;0.30;;;;;;;8.77;100.00;99354.22;5094928;28;20028;-54
2023/10/28 00:10:41;;;;;;;0.20;0.20;;;;;;;8.77;100.00;99351.66;5095430;28;20065;-55
2023/10/28 00:13:07;;;;;;;0.30;0.30;;;;;;;8.80;100.00;99356.81;5095912;28;20028;-55
2023/10/28 00:15:33;;;;;;;0.25;0.25;;;;;;;8.82;100.00;99355.13;5095137;28;20023;-54
2023/10/28 00:17:58;;;;;;;0.20;0.20;;;;;;;8.83;100.00;99362.00;5095244;28;20040;-55
2023/10/28 00:20:23;;;;;;;0.28;0.28;;;;;;;8.83;100.00;99363.69;5095567;28;20016;-55
2023/10/28 00:22:53;;;;;;;0.20;0.20;;;;;;;8.85;100.00;99354.31;5094513;28;20044;-54
2023/10/28 00:25:22;;;;;;;0.30;0.30;;;;;;;8.86;100.00;99356.03;5095680;28;20024;-54
2023/10/28 00:27:48;;;;;;;0.30;0.30;;;;;;;8.85;100.00;99356.88;5095204;28;20028;-54
2023/10/28 00:30:13;;;;;;;0.20;0.20;;;;;;;8.85;100.00;99350.03;5094717;28;20028;-55
2023/10/28 00:32:39;;;;;;;0.30;0.30;;;;;;;8.86;100.00;99356.88;5094902;28;20020;-55
2023/10/28 00:35:07;;;;;;;0.20;0.20;;;;;;;8.85;100.00;99355.16;5095205;28;20035;-54
2023/10/28 00:37:32;;;;;;;0.30;0.30;;;;;;;8.85;100.00;99352.59;5094457;28;20024;-54
2023/10/28 00:39:58;;;;;;;0.20;0.20;;;;;;;8.85;100.00;99357.72;5095150;28;20016;-56
2023/10/28 00:42:24;;;;;;;0.30;0.30;;;;;;;8.85;100.00;99356.88;5094960;28;20599;-56
2023/10/28 00:44:50;;;;;;;0.30;0.30;;;;;;;8.86;100.00;99356.03;5094317;28;20099;-56
2023/10/28 00:47:15;;;;;;;0.20;0.20;;;;;;;8.86;100.00;99353.47;5095076;28;20035;-56
2023/10/28 00:49:42;;;;;;;0.30;0.30;;;;;;;8.85;100.00;99354.31;5094558;28;20022;-56
2023/10/28 00:52:08;;;;;;;0.30;0.30;;;;;;;8.85;100.00;99368.00;5094345;28;20493;-56
2023/10/28 00:54:35;;;;;;;0.30;0.30;;;;;;;8.85;100.00;99362.00;5095144;28;20097;-56
2023/10/28 00:57:01;;;;;;;0.20;0.20;;;;;;;8.86;100.00;99359.47;5094846;28;20024;-56
2023/10/28 00:59:27;;;;;;;0.20;0.20;;;;;;;8.90;100.00;99355.22;5094360;28;20024;-56
2023/10/28 01:01:53;;;;;;;0.30;0.30;;;;;;;8.90;100.00;99356.06;5094568;28;20028;-56
2023/10/28 01:04:19;;;;;;;0.30;0.30;;;;;;;8.92;100.00;99352.66;5093733;28;20024;-55
2023/10/28 01:06:44;;;;;;;0.30;0.30;;;;;;;8.94;100.00;99353.56;5094145;28;20031;-56
2023/10/28 01:09:10;;;;;;;0.30;0.30;;;;;;;8.97;100.00;99353.59;5094871;28;20026;-56
2023/10/28 01:11:39;;;;;;;0.20;0.20;;;;;;;8.99;100.00;99355.34;5093530;28;20035;-55
2023/10/28 01:14:05;;;;;;;0.30;0.30;;;;;;;9.01;100.00;99357.91;5094595;28;20070;-56
2023/10/28 01:16:31;;;;;;;0.30;0.30;;;;;;;9.00;100.00;99356.19;5094600;28;20045;-55
2023/10/28 01:18:56;;;;;;;0.30;0.30;;;;;;;9.01;100.00;99352.78;5093430;28;20160;-56
2023/10/28 01:21:22;;;;;;;0.20;0.20;;;;;;;9.01;100.00;99348.53;5094372;28;20020;-55
2023/10/28 01:23:47;;;;;;;0.30;0.30;;;;;;;9.02;100.00;99350.22;5093993;28;20020;-56
2023/10/28 01:26:12;;;;;;;0.30;0.30;;;;;;;9.04;100.00;99348.53;5093740;28;20238;-56
2023/10/28 01:28:38;;;;;;;0.30;0.30;;;;;;;9.06;100.00;99345.97;5093850;28;20040;-56
2023/10/28 01:31:03;;;;;;;0.30;0.30;;;;;;;9.08;100.00;99341.72;5094293;28;20111;-56
2023/10/28 01:33:29;;;;;;;0.20;0.20;;;;;;;9.11;100.00;99353.75;5093487;28;20034;-56
2023/10/28 01:35:54;;;;;;;0.30;0.30;;;;;;;9.11;100.00;99349.47;5093877;28;20055;-55
2023/10/28 01:38:23;;;;;;;0.20;0.20;;;;;;;9.12;100.00;99356.34;5094339;28;20016;-56
2023/10/28 01:40:51;;;;;;;0.30;0.30;;;;;;;9.12;100.00;99361.47;5093031;28;20031;-55
2023/10/28 01:43:17;;;;;;;0.20;0.20;;;;;;;9.13;100.00;99362.34;5094251;28;20016;-56
2023/10/28 01:45:42;;;;;;;0.30;0.30;;;;;;;9.13;100.00;99352.06;5093893;28;20031;-55
2023/10/28 01:48:07;;;;;;;0.20;0.20;;;;;;;9.12;100.00;99351.19;5093366;28;20046;-55
2023/10/28 01:50:33;;;;;;;0.30;0.30;;;;;;;9.14;100.00;99349.53;5093756;28;20069;-56
2023/10/28 01:52:58;;;;;;;0.20;0.20;;;;;;;9.15;100.00;99361.50;5093309;28;20361;-56
2023/10/28 01:55:23;;;;;;;0.22;0.22;;;;;;;9.16;100.00;99352.09;5093408;28;20456;-56
2023/10/28 01:57:49;;;;;;;0.30;0.30;;;;;;;9.16;100.00;99357.25;5093483;28;20020;-56
2023/10/28 02:00:16;;;;;;;0.20;0.20;;;;;;;9.15;100.00;99351.22;5093489;28;20387;-56
2023/10/28 02:02:45;;;;;;;0.30;0.30;;;;;;;9.15;100.00;99351.22;5092947;28;20020;-56
2023/10/28 02:05:10;;;;;;;0.20;0.20;;;;;;;9.14;100.00;99344.38;5093618;28;20491;-56
2023/10/28 02:07:36;;;;;;;0.22;0.22;;;;;;;9.14;100.00;99344.38;5092692;28;20035;-55
2023/10/28 02:10:02;;;;;;;0.30;0.30;;;;;;;9.15;100.00;99348.66;5093512;28;20494;-56
2023/10/28 02:12:27;;;;;;;0.30;0.30;;;;;;;9.16;100.00;99341.81;5093514;28;20039;-54
2023/10/28 02:14:52;;;;;;;0.17;0.17;;;;;;;9.13;100.00;99345.22;5091708;28;20095;-55
2023/10/28 02:17:18;;;;;;;0.20;0.20;;;;;;;9.14;100.00;99344.38;5093354;28;20027;-56
2023/10/28 02:19:44;;;;;;;0.30;0.30;;;;;;;9.14;100.00;99346.06;5092985;28;20066;-56
2023/10/28 02:22:10;;;;;;;0.20;0.20;;;;;;;9.11;100.00;99346.91;5092742;28;20103;-55
2023/10/28 02:24:36;;;;;;;0.20;0.20;;;;;;;9.10;100.00;99349.47;5093079;28;20047;-55
2023/10/28 02:27:01;;;;;;;0.20;0.20;;;;;;;9.06;100.00;99346.88;5093283;28;20047;-56
2023/10/28 02:29:26;;;;;;;0.30;0.30;;;;;;;9.06;100.00;99345.97;5092601;28;20028;-55
2023/10/28 02:31:52;;;;;;;0.20;0.20;;;;;;;9.04;100.00;99347.69;5092891;28;20052;-56
2023/10/28 02:34:17;;;;;;;0.20;0.20;;;;;;;9.03;100.00;99351.09;5093061;28;20057;-56
2023/10/28 02:36:43;;;;;;;0.30;0.30;;;;;;;9.01;100.00;99339.94;5092234;28;20024;-55
2023/10/28 02:39:09;;;;;;;0.20;0.20;;;;;;;9.01;100.00;99343.38;5093230;28;20450;-54
2023/10/28 02:41:35;;;;;;;0.30;0.30;;;;;;;8.99;100.00;99345.06;5092760;28;20101;-55
2023/10/28 02:44:02;;;;;;;0.25;0.25;;;;;;;8.99;100.00;99341.63;5092184;28;20393;-56
2023/10/28 02:46:27;;;;;;;0.20;0.20;;;;;;;8.96;100.00;99333.88;5093283;28;20020;-56
2023/10/28 02:48:53;;;;;;;0.30;0.30;;;;;;;8.95;100.00;99342.41;5092162;28;20085;-56
2023/10/28 02:51:18;;;;;;;0.25;0.25;;;;;;;8.93;100.00;99346.69;5092572;28;20073;-55
2023/10/28 02:53:43;;;;;;;0.20;0.20;;;;;;;8.92;100.00;99347.53;5092479;28;20073;-54
2023/10/28 02:56:09;;;;;;;0.30;0.30;;;;;;;8.90;100.00;99350.94;5092708;28;20077;-54
2023/10/28 02:58:35;;;;;;;0.22;0.22;;;;;;;8.91;100.00;99351.81;5092091;28;20059;-56
2023/10/28 03:01:11;;;;;;;0.30;0.30;;;;;;;8.89;100.00;99358.63;5092661;28;20063;-56
2023/10/28 03:03:38;;;;;;;0.20;0.20;;;;;;;8.88;100.00;99360.34;5092251;28;20460;-55
2023/10/28 03:06:04;;;;;;;0.30;0.30;;;;;;;8.85;100.00;99356.88;5092262;28;20349;-55
2023/10/28 03:08:29;;;;;;;0.20;0.20;;;;;;;8.85;100.00;99362.00;5092889;28;20471;-55
2023/10/28 03:10:54;;;;;;;0.20;0.20;;;;;;;8.84;100.00;99366.28;5091853;28;20040;-55
2023/10/28 03:13:21;;;;;;;0.20;0.20;;;;;;;8.84;100.00;99361.13;5092639;28;20503;-56
2023/10/28 03:15:46;;;;;;;0.13;0.13;;;;;;;8.85;100.00;99362.88;5092344;28;20028;-55
2023/10/28 03:18:12;;;;;;;0.20;0.20;;;;;;;8.84;100.00;99355.16;5091842;28;20089;-55
2023/10/28 03:20:38;;;;;;;0.20;0.20;;;;;;;8.85;100.00;99357.72;5092272;28;20020;-56
2023/10/28 03:23:04;;;;;;;0.20;0.20;;;;;;;8.82;100.00;99352.56;5092709;28;20035;-55
2023/10/28 03:25:30;;;;;;;0.30;0.30;;;;;;;8.81;100.00;99340.56;5092007;28;20024;-56
2023/10/28 03:27:56;;;;;;;0.20;0.20;;;;;;;8.79;100.00;99352.53;5096169;28;20032;-56
2023/10/28 03:30:21;;;;;;;0.30;0.30;;;;;;;8.72;100.00;99355.84;5096605;28;20027;-56
2023/10/28 03:32:47;;;;;;;0.20;0.20;;;;;;;8.67;100.00;99360.06;5095454;28;20108;-56
2023/10/28 03:35:12;;;;;;;0.20;0.20;;;;;;;8.63;100.00;99351.47;5096391;28;20048;-54
2023/10/28 03:37:38;;;;;;;0.20;0.20;;;;;;;8.61;100.00;99359.97;5096214;28;20043;-55
2023/10/28 03:40:04;;;;;;;0.22;0.22;;;;;;;8.57;100.00;99359.94;5095785;28;20020;-56
2023/10/28 03:42:30;;;;;;;0.30;0.30;;;;;;;8.54;100.00;99365.03;5096270;28;20048;-55
2023/10/28 03:44:55;;;;;;;0.30;0.30;;;;;;;8.51;100.00;99367.56;5095712;28;20035;-55
2023/10/28 03:47:21;;;;;;;0.20;0.20;;;;;;;8.49;100.00;99358.97;5095896;28;20032;-56
2023/10/28 03:49:46;;;;;;;0.22;0.22;;;;;;;8.48;100.00;99358.94;5096082;28;20020;-54
2023/10/28 03:52:12;;;;;;;0.28;0.28;;;;;;;8.44;100.00;99355.44;5096094;28;20034;-55
2023/10/28 03:54:37;;;;;;;0.30;0.30;;;;;;;8.44;100.00;99352.03;5095367;28;20369;-56
2023/10/28 03:57:02;;;;;;;0.30;0.30;;;;;;;8.42;100.00;99354.56;5096098;28;20031;-56
2023/10/28 03:59:28;;;;;;;0.22;0.22;;;;;;;8.44;100.00;99360.56;5095802;28;20020;-55
2023/10/28 04:01:53;;;;;;;0.30;0.30;;;;;;;8.46;100.00;99355.53;5095037;28;20036;-56
2023/10/28 04:04:19;;;;;;;0.30;0.30;;;;;;;8.47;100.00;99355.53;5096230;28;20024;-55
2023/10/28 04:06:44;;;;;;;0.30;0.30;;;;;;;8.49;100.00;99348.69;5095466;28;20020;-55
2023/10/28 04:09:09;;;;;;;0.30;0.30;;;;;;;8.51;100.00;99352.16;5095584;28;20028;-55
2023/10/28 04:11:35;;;;;;;0.22;0.22;;;;;;;8.50;100.00;99349.56;5095608;28;20433;-55
2023/10/28 04:14:00;;;;;;;0.20;0.20;;;;;;;8.51;100.00;99352.16;5095348;28;20032;-55
2023/10/28 04:16:25;;;;;;;0.25;0.25;;;;;;;8.52;100.00;99345.31;5095145;28;20024;-55
2023/10/28 04:18:51;;;;;;;0.20;0.20;;;;;;;8.52;100.00;99343.63;5095540;28;20114;-56
2023/10/28 04:21:16;;;;;;;0.20;0.20;;;;;;;8.53;100.00;99341.91;5095033;28;20036;-55
2023/10/28 04:23:41;;;;;;;0.25;0.25;;;;;;;8.54;100.00;99343.63;5095346;28;20073;-55
2023/10/28 04:26:07;;;;;;;0.30;0.30;;;;;;;8.55;100.00;99341.09;5095564;28;20456;-56
2023/10/28 04:28:32;;;;;;;0.30;0.30;;;;;;;8.55;100.00;99343.66;5094646;28;20036;-55
2023/10/28 04:30:58;;;;;;;0.30;0.30;;;;;;;8.54;100.00;99335.94;5095116;28;20063;-55
2023/10/28 04:33:24;;;;;;;0.30;0.30;;;;;;;8.54;100.00;99329.06;5095371;28;20468;-55
2023/10/28 04:35:52;;;;;;;0.30;0.30;;;;;;;8.56;100.00;99324.84;5094483;28;20031;-55
2023/10/28 04:38:23;;;;;;;0.22;0.22;;;;;;;8.57;100.00;99336.84;5094515;28;20051;-56
2023/10/28 04:40:49;;;;;;;0.30;0.30;;;;;;;8.57;100.00;99331.72;5094722;28;20463;-55
2023/10/28 04:43:15;;;;;;;0.20;0.20;;;;;;;8.58;100.00;99330.00;5094359;28;20028;-56
2023/10/28 04:45:43;;;;;;;0.20;0.20;;;;;;;8.61;100.00;99336.88;5094837;28;20035;-56
2023/10/28 04:48:15;;;;;;;0.30;0.30;;;;;;;8.60;100.00;99335.13;5094972;28;20056;-56
2023/10/28 04:50:43;;;;;;;0.20;0.20;;;;;;;8.60;100.00;99328.31;5094330;28;20024;-55
2023/10/28 04:53:08;;;;;;;0.28;0.28;;;;;;;8.61;100.00;99332.63;5095081;28;20035;-56
2023/10/28 04:55:34;;;;;;;0.30;0.30;;;;;;;8.62;100.00;99331.75;5094810;28;20024;-55
2023/10/28 04:57:59;;;;;;;0.30;0.30;;;;;;;8.64;100.00;99329.22;5094278;28;20391;-55
2023/10/28 05:00:25;;;;;;;0.20;0.20;;;;;;;8.64;100.00;99321.53;5095161;28;20153;-55
2023/10/28 05:02:51;;;;;;;0.30;0.30;;;;;;;8.65;100.00;99328.34;5094472;28;20028;-55
2023/10/28 05:05:16;;;;;;;0.20;0.20;;;;;;;8.67;100.00;99326.69;5094219;28;20020;-55
2023/10/28 05:07:42;;;;;;;0.20;0.20;;;;;;;8.68;100.00;99321.56;5094313;28;20024;-54
2023/10/28 05:10:09;;;;;;;0.30;0.30;;;;;;;8.70;100.00;99321.56;5094588;28;20028;-55
2023/10/28 05:12:39;;;;;;;0.20;0.20;;;;;;;8.70;100.00;99306.16;5093907;28;20054;-56
2023/10/28 05:15:06;;;;;;;0.20;0.20;;;;;;;8.70;100.00;99317.31;5095156;28;20054;-56
2023/10/28 05:17:31;;;;;;;0.30;0.30;;;;;;;8.72;100.00;99314.75;5093772;28;20544;-56
2023/10/28 05:19:57;;;;;;;0.20;0.20;;;;;;;8.73;100.00;99319.06;5094383;28;20028;-55
2023/10/28 05:22:22;;;;;;;0.28;0.28;;;;;;;8.74;100.00;99318.22;5094671;28;20099;-56
2023/10/28 05:24:47;;;;;;;0.30;0.30;;;;;;;8.75;100.00;99319.91;5093400;28;20349;-55
2023/10/28 05:27:13;;;;;;;0.30;0.30;;;;;;;8.75;100.00;99325.06;5094320;28;20111;-55
2023/10/28 05:29:38;;;;;;;0.30;0.30;;;;;;;8.75;100.00;99319.06;5094013;28;20028;-55
2023/10/28 05:32:04;;;;;;;0.20;0.20;;;;;;;8.73;100.00;99324.19;5093770;28;20017;-56
2023/10/28 05:34:29;;;;;;;0.20;0.20;;;;;;;8.74;100.00;99318.22;5094282;28;20024;-55
2023/10/28 05:36:54;;;;;;;0.30;0.30;;;;;;;8.73;100.00;99311.34;5094002;28;20070;-56
2023/10/28 05:39:20;;;;;;;0.30;0.30;;;;;;;8.73;100.00;99312.22;5093395;28;20021;-56
2023/10/28 05:41:48;;;;;;;0.30;0.30;;;;;;;8.77;100.00;99319.97;5093694;28;20093;-55
2023/10/28 05:44:14;;;;;;;;;;;;;;;8.85;100.00;99328.63;5094473;28;20025;-56
2023/10/28 05:46:40;;;;;;;0.20;0.20;;;;;;;8.79;100.00;99332.00;5093181;28;20416;-56
2023/10/28 05:49:05;;;;;;;0.20;0.20;;;;;;;8.78;100.00;99322.56;5094027;28;20032;-55
2023/10/28 05:51:35;;;;;;;0.30;0.30;;;;;;;8.80;100.00;99327.69;5093860;28;20032;-55
2023/10/28 05:54:01;;;;;;;0.20;0.20;;;;;;;8.81;100.00;99330.28;5093321;28;20585;-56
2023/10/28 05:56:27;;;;;;;0.30;0.30;;;;;;;8.82;100.00;99337.16;5094066;28;20107;-55
2023/10/28 05:58:53;;;;;;;0.20;0.20;;;;;;;8.81;100.00;99340.56;5093152;28;20464;-56
2023/10/28 06:01:18;;;;;;;0.20;0.20;;;;;;;8.81;100.00;99332.84;5093298;28;20020;-55
2023/10/28 06:03:44;;;;;;;0.20;0.20;;;;;;;8.81;100.00;99348.25;5093464;28;20379;-56
2023/10/28 06:06:09;;;;;;;0.30;0.30;;;;;;;8.80;100.00;99341.41;5093515;28;20032;-56
2023/10/28 06:08:34;;;;;;;0.30;0.30;;;;;;;8.80;100.00;99345.69;5092814;28;20382;-56
2023/10/28 06:10:59;;;;;;;0.20;0.20;;;;;;;8.79;100.00;99344.84;5093396;28;20036;-56
2023/10/28 06:13:25;;;;;;;0.30;0.30;;;;;;;8.80;100.00;99337.97;5093528;28;20483;-56
2023/10/28 06:15:50;;;;;;;0.20;0.20;;;;;;;8.78;100.00;99345.66;5092588;28;20178;-56
2023/10/28 06:18:19;;;;;;;0.20;0.20;;;;;;;8.80;100.00;99345.69;5093403;28;20020;-53
2023/10/28 06:20:46;;;;;;;0.25;0.25;;;;;;;8.81;100.00;99342.28;5092840;28;20017;-56
2023/10/28 06:23:13;;;;;;;0.22;0.22;;;;;;;8.82;100.00;99350.00;5092820;28;20021;-56
2023/10/28 06:25:39;;;;;;;0.30;0.30;;;;;;;8.84;100.00;99355.16;5092902;28;20044;-55
2023/10/28 06:28:05;;;;;;;0.30;0.30;;;;;;;8.85;100.00;99355.16;5092597;28;20111;-56
2023/10/28 06:30:30;;;;;;;0.30;0.30;;;;;;;8.87;100.00;99350.03;5093349;28;20460;-56
2023/10/28 06:32:56;;;;;;;0.30;0.30;;;;;;;8.90;100.00;99353.50;5092883;28;20024;-56
2023/10/28 06:35:21;;;;;;;0.20;0.20;;;;;;;8.91;100.00;99349.25;5097562;28;20031;-56
2023/10/28 06:37:46;;;;;;;0.30;0.30;;;;;;;8.95;100.00;99362.97;5113198;28;20023;-56
2023/10/28 06:40:12;;;;;;;0.20;0.20;;;;;;;8.95;100.00;99361.28;5113419;28;20390;-56
2023/10/28 06:42:38;;;;;;;0.20;0.20;;;;;;;8.98;100.00;99357.88;5111993;28;20054;-55
2023/10/28 06:45:05;;;;;;;0.30;0.30;;;;;;;9.00;100.00;99353.63;5113392;28;20028;-55
2023/10/28 06:47:31;;;;;;;;;;;;;;;9.08;100.00;99346.88;5113669;28;20031;-56
2023/10/28 06:49:56;;;;;;;0.20;0.20;;;;;;;9.01;100.00;99352.78;5112536;28;19911;-56
2023/10/28 06:52:24;;;;;;;0.20;0.20;;;;;;;9.02;100.00;99355.34;5113343;28;20023;-56
2023/10/28 06:54:49;;;;;;;0.30;0.30;;;;;;;9.03;100.00;99351.09;5113051;28;20047;-56
2023/10/28 06:57:15;;;;;;;0.20;0.20;;;;;;;9.04;100.00;99350.25;5112879;28;20065;-56
2023/10/28 06:59:41;;;;;;;0.30;0.30;;;;;;;9.06;100.00;99353.69;5113109;28;20034;-56
2023/10/28 07:02:06;;;;;;;0.20;0.20;;;;;;;9.07;100.00;99352.84;5112713;28;20028;-56
2023/10/28 07:04:31;;;;;;;0.30;0.30;;;;;;;9.08;100.00;99349.44;5112731;28;20482;-56
2023/10/28 07:06:57;;;;;;;0.20;0.20;;;;;;;9.10;100.00;99355.44;5112757;28;20024;-55
2023/10/28 07:09:22;;;;;;;0.30;0.30;;;;;;;9.12;100.00;99356.34;5113155;28;20039;-56
2023/10/28 07:11:47;;;;;;;0.25;0.25;;;;;;;9.14;100.00;99359.81;5112508;28;20030;-55
2023/10/28 07:14:13;;;;;;;0.20;0.20;;;;;;;9.14;100.00;99354.66;5113325;28;20027;-55
2023/10/28 07:16:38;;;;;;;0.25;0.25;;;;;;;9.16;100.00;99360.66;5112703;28;20031;-56
2023/10/28 07:19:04;;;;;;;0.30;0.30;;;;;;;9.18;100.00;99361.56;5112545;28;20400;-55
2023/10/28 07:21:29;;;;;;;0.30;0.30;;;;;;;9.20;100.00;99365.00;5113019;28;20023;-55
2023/10/28 07:23:54;;;;;;;0.20;0.20;;;;;;;9.23;100.00;99366.72;5112428;28;20435;-56
2023/10/28 07:26:19;;;;;;;0.25;0.25;;;;;;;9.25;100.00;99365.06;5112588;28;20492;-56
2023/10/28 07:28:45;;;;;;;0.30;0.30;;;;;;;9.28;100.00;99364.22;5112687;28;20042;-55
2023/10/28 07:31:10;;;;;;;0.20;0.20;;;;;;;9.27;100.00;99367.63;5112335;28;20046;-55
2023/10/28 07:33:35;;;;;;;0.30;0.30;;;;;;;9.27;100.00;99359.91;5112759;28;20106;-56
2023/10/28 07:36:04;;;;;;;0.30;0.30;;;;;;;9.26;100.00;99369.34;5112881;28;20375;-55
2023/10/28 07:38:29;;;;;;;0.30;0.30;;;;;;;9.29;100.00;99369.38;5112122;28;20024;-56
2023/10/28 07:40:55;;;;;;;0.30;0.30;;;;;;;9.34;100.00;99372.00;5112458;28;20038;-55
2023/10/28 07:43:20;;;;;;;0.30;0.30;;;;;;;9.38;100.00;99368.63;5112818;28;20023;-55
2023/10/28 07:45:46;;;;;;;0.30;0.30;;;;;;;9.46;100.00;99377.25;5111703;28;20107;-55
2023/10/28 07:48:11;;;;;;;0.20;0.20;;;;;;;9.51;100.00;99370.47;5112752;28;20106;-55
2023/10/28 07:50:37;;;;;;;0.25;0.25;;;;;;;9.56;100.00;99373.94;5112183;28;20034;-54
2023/10/28 07:53:06;;;;;;;0.20;0.20;;;;;;;9.62;100.00;99383.44;5112152;28;20055;-53
2023/10/28 07:55:34;;;;;;;0.20;0.20;;;;;;;9.71;100.00;99385.25;5112931;28;20023;-56
2023/10/28 07:58:00;;;;;;;0.20;0.20;;;;;;;9.78;100.00;99389.59;5112281;28;20507;-52
2023/10/28 08:00:26;;;;;;;0.20;0.20;;;;;;;9.84;100.00;99391.38;5112306;28;20123;-54
2023/10/28 08:02:52;;;;;;;0.20;0.20;;;;;;;9.92;100.00;99394.00;5112406;28;20020;-54
2023/10/28 08:05:18;;;;;;;0.20;0.20;;;;;;;9.97;100.00;99397.50;5112279;28;20407;-54
2023/10/28 08:07:46;;;;;;;0.28;0.28;;;;;;;10.04;100.00;99406.97;5111841;28;20031;-55
2023/10/28 08:10:12;;;;;;;0.20;0.20;;;;;;;10.08;100.00;99408.72;5112451;28;20372;-55
2023/10/28 08:12:39;;;;;;;0.20;0.20;;;;;;;10.14;100.00;99411.34;5112208;28;20072;-56
2023/10/28 08:15:07;;;;;;;0.20;0.20;;;;;;;10.24;100.00;99411.41;5115832;28;20020;-55
2023/10/28 08:17:33;;;;;;;0.20;0.20;;;;;;;10.31;100.00;99410.63;5116225;28;20020;-55
2023/10/28 08:19:58;;;;;;;0.20;0.20;;;;;;;10.38;100.00;99415.88;5115480;28;20053;-55
2023/10/28 08:22:26;;;;;;;0.17;0.17;;;;;;;10.44;100.00;99407.31;5115746;28;20524;-54
2023/10/28 08:24:52;;;;;;;0.20;0.20;;;;;;;10.52;100.00;99405.66;5115795;28;20035;-53
2023/10/28 08:27:17;;;;;;;0.20;0.20;;;;;;;10.58;100.00;99409.13;5115429;28;20103;-54
2023/10/28 08:29:43;;;;;;;0.20;0.20;;;;;;;10.61;100.00;99419.44;5115136;28;20035;-54
2023/10/28 08:32:09;;;;;;;0.20;0.20;;;;;;;10.61;100.00;99422.03;5116107;28;20028;-54
2023/10/28 08:34:34;;;;;;;0.15;0.15;;;;;;;10.61;100.00;99424.59;5114668;28;20076;-55
2023/10/28 08:37:00;;;;;;;0.20;0.20;;;;;;;10.64;100.00;99425.47;5115815;28;20027;-54
2023/10/28 08:39:26;;;;;;;0.20;0.20;;;;;;;10.69;100.00;99422.91;5115995;28;20045;-54
2023/10/28 08:41:51;;;;;;;0.20;0.20;;;;;;;10.76;100.00;99429.84;5114577;28;20037;-54
2023/10/28 08:44:27;;;;;;;0.20;0.20;;;;;;;10.82;100.00;99435.03;5115781;28;20111;-54
2023/10/28 08:46:53;;;;;;;0.20;0.20;;;;;;;10.85;100.00;99435.03;5115144;28;20028;-55
2023/10/28 08:49:21;;;;;;;0.20;0.20;;;;;;;10.90;100.00;99434.22;5114941;28;20459;-55
2023/10/28 08:51:51;;;;;;;0.20;0.20;;;;;;;10.98;100.00;99435.97;5115346;28;20028;-54
2023/10/28 08:54:17;;;;;;;0.13;0.13;;;;;;;10.99;100.00;99436.84;5115539;28;20028;-54
2023/10/28 08:56:43;;;;;;;0.20;0.20;;;;;;;11.05;100.00;99444.59;5114662;28;20034;-54
2023/10/28 08:59:10;;;;;;;0.20;0.20;;;;;;;11.12;100.00;99436.06;5115418;28;20027;-54
2023/10/28 09:01:36;;;;;;;0.10;0.10;;;;;;;11.26;100.00;99445.56;5114638;28;20020;-54
2023/10/28 09:04:04;;;;;;;0.20;0.20;;;;;;;11.37;100.00;99443.88;5114740;28;20467;-55
2023/10/28 09:06:30;;;;;;;0.20;0.20;;;;;;;11.45;100.00;99451.66;5115445;28;20057;-54
2023/10/28 09:08:57;;;;;;;0.20;0.20;;;;;;;11.46;100.00;99454.22;5114735;28;20028;-55
2023/10/28 09:11:23;;;;;;;0.20;0.20;;;;;;;11.52;100.00;99454.25;5114777;28;20032;-55
2023/10/28 09:13:48;;;;;;;0.20;0.20;;;;;;;11.50;100.00;99455.09;5114820;28;20035;-55
2023/10/28 09:16:16;;;;;;;0.20;0.20;;;;;;;11.59;100.00;99455.13;5114744;28;20106;-54
2023/10/28 09:18:43;;;;;;;0.20;0.20;;;;;;;11.64;100.00;99447.41;5114328;28;20090;-55
2023/10/28 09:21:10;;;;;;;0.20;0.20;;;;;;;11.64;100.00;99455.16;5115105;28;20028;-54
2023/10/28 09:23:41;;;;;;;0.20;0.20;;;;;;;11.80;100.00;99459.50;5114285;28;20026;-55
2023/10/28 09:26:08;;;;;;;0.10;0.10;;;;;;;11.97;100.00;99456.13;5114902;28;20019;-55
2023/10/28 09:28:33;;;;;;;0.20;0.20;;;;;;;12.09;100.00;99455.28;5114575;28;20026;-55
2023/10/28 09:30:59;;;;;;;0.13;0.13;;;;;;;12.17;100.00;99454.44;5113828;28;20024;-55
2023/10/28 09:33:26;;;;;;;0.20;0.20;;;;;;;12.24;100.00;99449.25;5114861;28;20030;-55
2023/10/28 09:35:55;;;;;;;0.20;0.20;;;;;;;12.30;100.00;99460.47;5114290;28;20023;-54
2023/10/28 09:38:22;;;;;;;0.20;0.20;;;;;;;12.33;100.00;99451.81;5114142;28;20027;-55
2023/10/28 09:40:48;;;;;;;0.20;0.20;;;;;;;12.33;100.00;99454.41;5114298;28;20028;-55
2023/10/28 09:43:17;;;;;;;0.20;0.20;;;;;;;12.25;100.00;99458.72;5114234;28;20070;-55
2023/10/28 09:45:50;;;;;;;0.20;0.20;;;;;;;12.19;100.00;99460.44;5113590;28;20019;-54
2023/10/28 09:48:17;;;;;;;0.10;0.10;;;;;;;12.21;100.00;99467.34;5114530;28;20029;-53
2023/10/28 09:50:52;;;;;;;0.20;0.20;;;;;;;12.15;100.00;99456.13;5113790;28;20484;-55
2023/10/28 09:53:23;;;;;;;0.10;0.10;;;;;;;12.15;100.00;99458.72;5113849;28;20020;-55
2023/10/28 09:55:53;;;;;;;0.20;0.20;;;;;;;12.27;100.00;99454.44;5114073;28;20035;-55
2023/10/28 09:58:25;;;;;;;0.20;0.20;;;;;;;12.67;100.00;99460.41;5114153;28;20031;-54
2023/10/28 10:00:57;;;;;;;0.20;0.20;;;;;;;13.12;100.00;99452.56;5113536;28;20020;-55
2023/10/28 10:03:38;;;;;;;0.10;0.10;;;;;;;13.62;100.00;99454.97;5114052;28;20356;-53
2023/10/28 10:06:04;;;;;;;0.10;0.10;;;;;;;13.73;100.00;99454.94;5113324;28;20144;-55
2023/10/28 10:08:29;;;;;;;0.10;0.10;;;;;;;13.88;100.00;99460.03;5114156;28;20035;-55
2023/10/28 10:10:57;;;;;;;0.15;0.15;;;;;;;14.02;100.00;99456.47;5113322;28;20027;-55
2023/10/28 10:13:23;;;;;;;0.10;0.10;;;;;;;14.00;100.00;99459.91;5113474;28;20019;-56
2023/10/28 10:16:05;;;;;;;0.10;0.10;;;;;;;14.15;100.00;99468.44;5113624;28;20068;-56
2023/10/28 10:18:40;;;;;;;0.10;0.10;;;;;;;13.99;100.00;99458.22;5113723;28;20039;-56
2023/10/28 10:21:12;;;;;;;0.10;0.10;;;;;;;13.70;100.00;99471.34;5113474;28;20023;-55
2023/10/28 10:23:46;;;;;;;0.10;0.10;;;;;;;13.59;100.00;99470.53;5113543;28;20028;-54
2023/10/28 10:26:24;;;;;;;0.10;0.10;;;;;;;13.48;100.00;99476.63;5113669;28;20028;-54
2023/10/28 10:28:55;;;;;;;0.10;0.10;;;;;;;13.24;100.00;99476.69;5112673;28;20482;-55
2023/10/28 10:31:27;;;;;;;0.10;0.10;;;;;;;13.13;100.00;99475.00;5113582;28;20023;-55
2023/10/28 10:33:58;;;;;;;0.10;0.10;;;;;;;13.14;100.00;99475.84;5113018;28;20495;-55
2023/10/28 10:36:27;;;;;;;0.10;0.10;;;;;;;13.09;100.00;99470.69;5112528;28;20023;-55
2023/10/28 10:38:52;;;;;;;0.10;0.10;;;;;;;13.10;100.00;99469.81;5112925;28;20495;-55
2023/10/28 10:41:27;;;;;;;0.10;0.10;;;;;;;12.99;100.00;99471.59;5112991;28;20120;-55
2023/10/28 10:43:53;;;;;;;0.10;0.10;;;;;;;12.88;100.00;99470.75;5113034;28;20024;-55
2023/10/28 10:46:18;;;;;;;0.10;0.10;;;;;;;12.80;100.00;99466.44;5113385;28;20026;-55
2023/10/28 10:48:46;;;;;;;0.20;0.20;;;;;;;13.00;100.00;99468.13;5112393;28;20471;-54
2023/10/28 10:51:14;;;;;;;0.10;0.10;;;;;;;13.10;100.00;99469.81;5113549;28;20038;-55
2023/10/28 10:53:43;;;;;;;0.10;0.10;;;;;;;13.05;100.00;99466.38;5112864;28;20027;-56
2023/10/28 10:56:21;;;;;;;0.10;0.10;;;;;;;13.03;100.00;99470.72;5112809;28;20026;-55
2023/10/28 10:58:46;;;;;;;0.20;0.20;;;;;;;13.00;100.00;99473.28;5112877;28;20351;-54
2023/10/28 11:01:12;;;;;;;0.20;0.20;;;;;;;13.29;100.00;99468.03;5113212;28;20032;-54
2023/10/28 11:03:39;;;;;;;0.10;0.10;;;;;;;13.49;100.00;99475.75;5112467;28;20023;-54
2023/10/28 11:06:06;;;;;;;0.10;0.10;;;;;;;13.83;100.00;99472.97;5113179;28;20055;-54
2023/10/28 11:08:31;;;;;;;0.20;0.20;;;;;;;13.79;100.00;99471.28;5112929;28;20027;-55
2023/10/28 11:10:57;;;;;;;0.10;0.10;;;;;;;13.73;100.00;99468.72;5112071;28;20020;-55
2023/10/28 11:13:22;;;;;;;0.10;0.10;;;;;;;13.75;100.00;99464.41;5113237;28;20364;-54
2023/10/28 11:15:49;;;;;;;0.10;0.10;;;;;;;14.09;100.00;99461.59;5112589;28;20019;-54
2023/10/28 11:18:15;;;;;;;0.15;0.15;;;;;;;14.16;100.00;99459.81;5112575;28;20024;-52
2023/10/28 11:20:42;;;;;;;0.10;0.10;;;;;;;14.08;100.00;99462.47;5112814;28;20064;-54
2023/10/28 11:23:08;;;;;;;0.10;0.10;;;;;;;14.11;100.00;99457.28;5112874;28;20024;-55
2023/10/28 11:25:34;;;;;;;0.10;0.10;;;;;;;13.88;100.00;99465.19;5112395;28;20077;-53
2023/10/28 11:28:10;;;;;;;0.10;0.10;;;;;;;13.77;100.00;99459.22;5112370;28;20038;-53